Time;durP1;ratioP1;P1;durP2;ratioP2;P2;SDS_P1;SDS_P2;PMS_P1;PMS_P2;Temp;Humidity;BMP_temperature;BMP_pressure;BME280_temperature;BME280_humidity;BME280_pressure;Samples;Min_cycle;Max_cycle;Signal;HPM_P1;HPM_P2
2023/05/18 00:04:28;;;;;;;3.07;2.73;;;12.80;31.80;;;;;;10339509;28;20309;-70
2023/05/18 00:09:32;;;;;;;3.83;2.30;;;12.70;31.80;;;;;;10340953;28;20502;-70
2023/05/18 00:14:36;;;;;;;2.70;2.43;;;12.60;31.70;;;;;;10338380;28;20249;-70
2023/05/18 00:19:41;;;;;;;3.00;2.70;;;12.60;31.80;;;;;;10337080;28;20257;-70
2023/05/18 00:24:45;;;;;;;3.47;2.67;;;12.50;31.90;;;;;;10341226;28;20219;-70
2023/05/18 00:29:48;;;;;;;3.57;3.03;;;12.40;31.70;;;;;;10339455;28;20254;-70
2023/05/18 00:34:53;;;;;;;3.70;2.90;;;12.40;31.80;;;;;;10337924;28;20226;-70
2023/05/18 00:39:56;;;;;;;3.30;2.60;;;12.30;32.00;;;;;;10338850;28;20248;-70
2023/05/18 00:44:59;;;;;;;2.80;2.60;;;12.20;31.90;;;;;;10337764;28;20224;-70
2023/05/18 00:50:04;;;;;;;3.47;2.57;;;12.10;31.90;;;;;;10336910;28;20222;-70
2023/05/18 00:55:11;;;;;;;2.97;2.67;;;12.10;32.20;;;;;;10336780;28;20871;-69
2023/05/18 01:00:16;;;;;;;2.73;2.53;;;12.00;32.00;;;;;;10328255;28;20242;-70
2023/05/18 01:05:21;;;;;;;2.57;2.37;;;12.00;32.20;;;;;;10332089;28;20278;-70
2023/05/18 01:10:24;;;;;;;2.80;2.50;;;11.90;32.10;;;;;;10338343;28;20292;-70
2023/05/18 01:15:32;;;;;;;2.30;2.10;;;11.80;32.00;;;;;;10338739;28;20314;-70
2023/05/18 01:20:44;;;;;;;4.10;2.77;;;11.80;32.30;;;;;;10341092;28;20233;-70
2023/05/18 01:25:56;;;;;;;2.57;2.37;;;11.70;32.30;;;;;;10337594;28;20235;-70
2023/05/18 01:31:01;;;;;;;2.47;2.27;;;11.70;32.50;;;;;;10341554;28;20232;-69
2023/05/18 01:36:04;;;;;;;2.57;2.37;;;11.60;32.30;;;;;;10341027;28;20219;-70
2023/05/18 01:41:14;;;;;;;2.47;2.27;;;11.60;32.30;;;;;;10336221;28;20214;-70
2023/05/18 01:46:28;;;;;;;2.10;1.93;;;11.50;32.70;;;;;;10336510;28;20252;-70
2023/05/18 01:51:36;;;;;;;2.60;2.40;;;11.50;32.70;;;;;;10340032;28;20231;-70
2023/05/18 01:56:39;;;;;;;3.30;3.00;;;11.40;32.60;;;;;;10336176;28;20801;-70
2023/05/18 02:01:44;;;;;;;2.10;2.00;;;11.40;32.40;;;;;;10340485;28;20776;-71
2023/05/18 02:06:47;;;;;;;2.50;2.30;;;11.40;32.50;;;;;;10336086;28;20234;-70
2023/05/18 02:11:51;;;;;;;2.17;1.90;;;11.30;32.40;;;;;;10332228;28;20234;-70
2023/05/18 02:16:56;;;;;;;2.23;1.50;;;11.20;32.40;;;;;;10335538;28;21101;-70
2023/05/18 02:21:59;;;;;;;2.87;2.07;;;11.20;32.50;;;;;;10338331;28;20219;-70
2023/05/18 02:27:02;;;;;;;3.67;2.63;;;11.20;32.60;;;;;;10330018;28;20337;-70
2023/05/18 02:32:08;;;;;;;2.90;2.70;;;11.10;32.60;;;;;;10334525;28;20725;-70
2023/05/18 02:37:12;;;;;;;3.27;2.30;;;11.10;32.80;;;;;;10333498;28;20277;-70
2023/05/18 02:42:16;;;;;;;2.93;2.47;;;11.00;32.70;;;;;;10335506;28;20828;-70
2023/05/18 02:47:20;;;;;;;3.17;2.00;;;11.00;32.80;;;;;;10341036;28;20264;-70
2023/05/18 02:52:23;;;;;;;2.30;1.80;;;11.00;32.80;;;;;;10336737;28;20233;-70
2023/05/18 02:57:27;;;;;;;2.43;2.23;;;11.00;32.70;;;;;;10336443;28;20234;-70
2023/05/18 03:02:31;;;;;;;3.70;2.30;;;11.00;32.90;;;;;;10336188;28;20237;-70
2023/05/18 03:07:35;;;;;;;2.67;2.43;;;10.90;33.00;;;;;;10335345;28;20301;-70
2023/05/18 03:12:38;;;;;;;3.00;2.00;;;10.90;32.90;;;;;;10338574;28;20218;-70
2023/05/18 03:17:42;;;;;;;3.63;2.30;;;10.80;32.90;;;;;;10332261;28;20233;-69
2023/05/18 03:22:46;;;;;;;2.57;2.30;;;10.80;33.20;;;;;;10338546;28;20218;-69
2023/05/18 03:27:50;;;;;;;3.20;2.70;;;10.80;33.00;;;;;;10337523;28;20235;-69
2023/05/18 03:32:55;;;;;;;3.97;3.00;;;10.80;33.10;;;;;;10335651;28;20601;-69
2023/05/18 03:37:58;;;;;;;3.00;2.60;;;10.80;33.30;;;;;;10343442;28;20241;-69
2023/05/18 03:43:01;;;;;;;3.27;2.40;;;10.70;33.10;;;;;;10349446;28;20950;-69
2023/05/18 03:48:06;;;;;;;2.80;2.47;;;10.60;33.10;;;;;;10344673;28;20613;-69
2023/05/18 03:53:09;;;;;;;3.07;2.60;;;10.60;33.50;;;;;;10348757;28;20233;-69
2023/05/18 03:58:13;;;;;;;3.53;2.30;;;10.60;33.30;;;;;;10343547;28;20234;-69
2023/05/18 04:03:20;;;;;;;3.93;2.80;;;10.60;33.40;;;;;;10348748;28;20231;-70
2023/05/18 04:08:24;;;;;;;3.47;2.60;;;10.60;33.60;;;;;;10335232;28;20719;-70
2023/05/18 04:13:28;;;;;;;5.83;2.93;;;10.60;33.50;;;;;;10341058;28;20238;-70
2023/05/18 04:18:32;;;;;;;4.23;3.00;;;10.60;33.60;;;;;;10351487;28;20628;-70
2023/05/18 04:23:37;;;;;;;3.40;2.37;;;10.60;33.90;;;;;;10362699;28;20258;-70
2023/05/18 04:28:42;;;;;;;2.70;2.20;;;10.50;33.70;;;;;;10368969;28;20284;-70
2023/05/18 04:33:46;;;;;;;3.73;2.77;;;10.60;33.80;;;;;;10359223;28;20224;-70
2023/05/18 04:38:50;;;;;;;3.60;2.63;;;10.60;34.10;;;;;;10360596;28;20666;-70
2023/05/18 04:43:53;;;;;;;2.40;2.03;;;10.60;34.00;;;;;;10361239;28;20309;-70
2023/05/18 04:48:57;;;;;;;3.50;2.50;;;10.60;34.00;;;;;;10365744;28;20226;-70
2023/05/18 04:54:01;;;;;;;4.23;2.63;;;10.60;34.40;;;;;;10350119;28;20231;-70
2023/05/18 04:59:05;;;;;;;3.23;2.60;;;10.60;34.40;;;;;;10368084;28;20820;-70
2023/05/18 05:04:10;;;;;;;3.50;2.70;;;10.70;35.20;;;;;;10353328;28;20958;-70
2023/05/18 05:09:13;;;;;;;5.13;3.00;;;10.70;34.90;;;;;;10350290;28;20229;-70
2023/05/18 05:14:16;;;;;;;4.20;2.67;;;10.80;34.80;;;;;;10362898;28;20232;-70
2023/05/18 05:19:21;;;;;;;4.23;2.60;;;10.80;34.90;;;;;;10362336;28;20856;-70
2023/05/18 05:24:25;;;;;;;5.53;3.33;;;10.90;35.30;;;;;;10351024;28;20260;-70
2023/05/18 05:29:28;;;;;;;4.57;2.90;;;11.00;35.20;;;;;;10338169;28;20266;-69
2023/05/18 05:34:32;;;;;;;5.43;2.67;;;11.10;35.50;;;;;;10329820;28;20258;-69
2023/05/18 05:39:36;;;;;;;5.60;2.80;;;11.20;35.80;;;;;;10328545;28;20226;-69
2023/05/18 05:44:39;;;;;;;3.50;2.40;;;11.30;35.70;;;;;;10333418;28;20232;-69
2023/05/18 05:49:44;;;;;;;5.80;3.00;;;11.40;35.60;;;;;;10336747;28;20430;-69
2023/05/18 05:54:47;;;;;;;4.57;2.60;;;11.50;36.20;;;;;;10329205;28;20278;-70
2023/05/18 05:59:51;;;;;;;4.73;2.77;;;11.60;35.90;;;;;;10328199;28;20951;-69
2023/05/18 06:04:56;;;;;;;4.57;2.70;;;11.70;36.10;;;;;;10328888;28;20224;-69
2023/05/18 06:09:59;;;;;;;3.80;2.70;;;11.90;36.20;;;;;;10325327;28;20241;-69
2023/05/18 06:15:02;;;;;;;5.23;2.40;;;12.00;35.90;;;;;;10327101;28;20222;-70
2023/05/18 06:20:08;;;;;;;5.50;2.70;;;12.20;35.80;;;;;;10330833;28;20234;-70
2023/05/18 06:25:11;;;;;;;7.83;2.23;;;12.30;35.90;;;;;;10328530;28;20218;-70
2023/05/18 06:30:14;;;;;;;6.40;2.80;;;12.50;35.60;;;;;;10330015;28;20687;-70
2023/05/18 06:35:19;;;;;;;5.00;2.37;;;12.70;35.60;;;;;;10326511;28;20227;-70
2023/05/18 06:40:22;;;;;;;3.83;2.53;;;12.90;35.70;;;;;;10330673;28;20230;-69
2023/05/18 06:45:25;;;;;;;5.93;2.87;;;13.00;35.50;;;;;;10327703;28;20238;-70
2023/05/18 06:50:30;;;;;;;5.27;2.53;;;13.20;35.70;;;;;;10328092;28;20230;-70
2023/05/18 06:55:33;;;;;;;3.20;2.20;;;13.40;35.60;;;;;;10332664;28;20621;-69
2023/05/18 07:00:37;;;;;;;3.27;2.47;;;13.60;35.50;;;;;;10333101;28;20329;-70
2023/05/18 07:05:42;;;;;;;4.97;2.40;;;13.80;35.60;;;;;;10325627;28;20775;-70
2023/05/18 07:10:45;;;;;;;4.87;2.47;;;14.00;35.40;;;;;;10346459;28;20226;-70
2023/05/18 07:15:48;;;;;;;6.17;2.63;;;14.20;35.40;;;;;;10340614;28;20272;-70
2023/05/18 07:20:53;;;;;;;6.43;2.60;;;14.40;35.20;;;;;;10344171;28;20773;-70
2023/05/18 07:25:57;;;;;;;6.70;2.60;;;14.60;35.10;;;;;;10338041;28;20587;-69
2023/05/18 07:31:00;;;;;;;4.23;2.40;;;14.80;35.10;;;;;;10342720;28;20226;-70
2023/05/18 07:36:05;;;;;;;5.27;2.70;;;15.00;35.00;;;;;;10335728;28;20223;-69
2023/05/18 07:41:08;;;;;;;4.97;2.13;;;15.20;34.40;;;;;;10342734;28;20759;-70
2023/05/18 07:46:11;;;;;;;4.30;2.30;;;15.40;34.30;;;;;;10337546;28;20231;-70
2023/05/18 07:51:16;;;;;;;5.97;2.40;;;15.70;34.40;;;;;;10338580;28;20310;-70
2023/05/18 07:56:19;;;;;;;5.90;2.17;;;15.90;34.30;;;;;;10338702;28;20273;-70
2023/05/18 08:01:26;;;;;;;5.20;2.40;;;16.10;34.40;;;;;;10339669;28;20237;-70
2023/05/18 08:06:30;;;;;;;5.63;2.40;;;16.30;33.60;;;;;;10334630;28;20629;-70
2023/05/18 08:11:34;;;;;;;6.10;2.43;;;16.60;33.50;;;;;;10332327;28;20230;-70
2023/05/18 08:16:37;;;;;;;4.53;2.30;;;16.80;33.70;;;;;;10329245;28;20260;-68
2023/05/18 08:21:42;;;;;;;5.57;2.57;;;16.90;33.20;;;;;;10332387;28;20349;-69
2023/05/18 08:26:45;;;;;;;5.33;2.73;;;17.20;32.30;;;;;;10333320;28;20222;-69
2023/05/18 08:31:48;;;;;;;3.97;2.47;;;17.30;32.30;;;;;;10338915;28;20711;-69
2023/05/18 08:36:53;;;;;;;6.30;2.50;;;17.40;32.20;;;;;;10338849;28;20311;-69
2023/05/18 08:42:02;;;;;;;4.37;2.50;;;17.50;31.60;;;;;;10332217;28;20227;-69
2023/05/18 08:47:09;;;;;;;3.90;2.30;;;17.60;31.20;;;;;;10332289;28;20276;-69
2023/05/18 08:52:18;;;;;;;4.80;2.50;;;17.70;31.20;;;;;;10334993;28;20229;-69
2023/05/18 08:57:22;;;;;;;4.47;2.43;;;17.90;30.10;;;;;;10332837;28;20242;-69
2023/05/18 09:02:26;;;;;;;4.30;2.30;;;18.00;30.90;;;;;;10330559;28;20264;-69
2023/05/18 09:07:32;;;;;;;3.40;2.33;;;18.10;30.80;;;;;;10333525;28;20278;-69
2023/05/18 09:12:36;;;;;;;6.43;2.17;;;18.20;30.50;;;;;;10334091;28;20229;-69
2023/05/18 09:17:39;;;;;;;4.43;2.63;;;18.20;31.10;;;;;;10330473;28;20234;-69
2023/05/18 09:22:43;;;;;;;5.43;2.60;;;18.40;31.10;;;;;;10337325;28;20753;-69
2023/05/18 09:27:50;;;;;;;5.83;2.60;;;18.50;30.40;;;;;;10326839;28;20233;-69
2023/05/18 09:32:53;;;;;;;7.03;2.50;;;18.70;30.40;;;;;;10327424;28;20763;-69
2023/05/18 09:38:04;;;;;;;5.63;2.40;;;18.80;30.20;;;;;;10330437;28;20338;-69
2023/05/18 09:43:07;;;;;;;3.80;2.40;;;18.90;28.80;;;;;;10328739;28;20225;-70
2023/05/18 09:48:11;;;;;;;7.00;2.43;;;19.00;29.80;;;;;;10327851;28;20237;-68
2023/05/18 09:53:16;;;;;;;5.63;2.43;;;19.00;29.70;;;;;;10335649;28;20218;-68
2023/05/18 09:58:19;;;;;;;6.07;2.30;;;19.00;29.30;;;;;;10340247;28;20234;-68
2023/05/18 10:03:24;;;;;;;4.20;2.23;;;19.00;29.50;;;;;;10337011;28;20233;-68
2023/05/18 10:08:30;;;;;;;5.40;2.67;;;19.20;29.30;;;;;;10334369;28;20809;-69
2023/05/18 10:13:34;;;;;;;5.47;2.30;;;19.30;29.00;;;;;;10333895;28;20330;-69
2023/05/18 10:18:39;;;;;;;4.50;2.17;;;19.30;29.30;;;;;;10332452;28;20669;-69
2023/05/18 10:23:48;;;;;;;4.80;2.27;;;19.50;29.10;;;;;;10327931;28;20223;-69
2023/05/18 10:28:53;;;;;;;4.87;2.43;;;19.60;28.40;;;;;;10329758;28;20238;-68
2023/05/18 10:33:59;;;;;;;4.07;2.00;;;19.70;28.70;;;;;;10331380;28;20222;-69
2023/05/18 10:39:05;;;;;;;3.87;2.20;;;19.80;28.70;;;;;;10335585;28;20230;-68
2023/05/18 10:44:09;;;;;;;6.37;2.60;;;19.80;27.90;;;;;;10339242;28;20908;-68
2023/05/18 10:49:16;;;;;;;6.33;2.90;;;19.90;28.20;;;;;;10341712;28;20698;-69
2023/05/18 10:54:22;;;;;;;3.47;2.33;;;19.80;27.70;;;;;;10339708;28;20310;-68
2023/05/18 10:59:26;;;;;;;3.83;1.90;;;19.80;27.60;;;;;;10345195;28;20240;-68
2023/05/18 11:04:31;;;;;;;5.27;2.20;;;19.80;28.00;;;;;;10342200;28;20236;-69
2023/05/18 11:09:36;;;;;;;4.00;1.97;;;19.70;27.50;;;;;;10339551;28;20234;-68
2023/05/18 11:14:49;;;;;;;3.83;2.30;;;19.80;27.70;;;;;;10343414;28;20305;-68
2023/05/18 11:20:11;;;;;;;4.20;2.37;;;19.80;27.50;;;;;;10344440;28;20227;-68
2023/05/18 11:25:48;;;;;;;3.70;2.20;;;19.80;27.10;;;;;;10337338;28;20918;-69
2023/05/18 11:30:51;;;;;;;3.67;2.40;;;19.90;27.10;;;;;;10338287;28;20241;-68
2023/05/18 11:36:06;;;;;;;3.37;2.33;;;19.90;27.50;;;;;;10339105;28;20229;-68
2023/05/18 11:41:30;;;;;;;3.50;2.20;;;19.90;27.30;;;;;;10340277;28;20222;-68
2023/05/18 11:46:33;;;;;;;4.33;2.10;;;19.90;27.20;;;;;;10341545;28;20230;-68
2023/05/18 11:51:58;;;;;;;4.43;2.10;;;19.80;28.10;;;;;;10343119;28;20222;-68
2023/05/18 11:57:02;;;;;;;4.37;2.50;;;19.90;26.70;;;;;;10331651;28;20319;-69
2023/05/18 12:02:07;;;;;;;3.57;2.33;;;19.90;26.90;;;;;;10339486;28;20650;-69
2023/05/18 12:07:11;;;;;;;4.17;2.30;;;19.80;27.00;;;;;;10333634;28;20230;-69
2023/05/18 12:12:18;;;;;;;4.57;2.27;;;19.70;27.30;;;;;;10340640;28;20236;-69
2023/05/18 12:17:23;;;;;;;4.73;2.30;;;19.80;26.80;;;;;;10336667;28;20800;-69
2023/05/18 12:22:27;;;;;;;4.00;2.10;;;19.80;27.30;;;;;;10338080;28;20239;-68
2023/05/18 12:27:37;;;;;;;2.57;2.23;;;19.80;27.20;;;;;;10336547;28;20261;-68
2023/05/18 12:32:46;;;;;;;2.67;2.10;;;19.90;26.90;;;;;;10335012;28;20707;-68
2023/05/18 12:37:50;;;;;;;3.83;2.20;;;19.90;25.90;;;;;;10344492;28;20730;-68
2023/05/18 12:42:55;;;;;;;3.33;2.03;;;19.90;26.60;;;;;;10340698;28;20310;-68
2023/05/18 12:48:04;;;;;;;5.63;2.60;;;19.90;26.00;;;;;;10337504;28;20665;-68
2023/05/18 12:53:08;;;;;;;3.50;2.20;;;19.90;26.00;;;;;;10344040;28;20292;-68
2023/05/18 12:58:15;;;;;;;5.77;2.20;;;19.90;26.70;;;;;;10342055;28;20257;-67
2023/05/18 13:03:20;;;;;;;3.53;2.30;;;19.90;26.60;;;;;;10339963;28;20226;-68
2023/05/18 13:08:24;;;;;;;3.10;1.97;;;19.90;26.60;;;;;;10349003;28;20243;-68
2023/05/18 13:13:29;;;;;;;4.23;2.27;;;19.90;26.60;;;;;;10335098;28;20249;-67
2023/05/18 13:18:32;;;;;;;2.73;2.03;;;20.00;26.10;;;;;;10336629;28;20685;-67
2023/05/18 13:23:36;;;;;;;7.37;4.20;;;20.00;26.40;;;;;;10339290;28;20240;-67
2023/05/18 13:28:41;;;;;;;6.03;2.90;;;20.00;26.30;;;;;;10343442;28;20230;-67
2023/05/18 13:33:44;;;;;;;4.63;3.80;;;20.00;25.90;;;;;;10342201;28;20226;-68
2023/05/18 13:38:47;;;;;;;4.63;3.50;;;19.90;26.10;;;;;;10339276;28;20590;-67
2023/05/18 13:43:52;;;;;;;4.07;2.70;;;19.80;26.10;;;;;;10339993;28;20234;-69
2023/05/18 13:48:55;;;;;;;5.93;2.83;;;19.70;25.70;;;;;;10336462;28;20251;-68
2023/05/18 13:54:02;;;;;;;4.87;2.80;;;19.70;26.40;;;;;;10308772;28;21160;-67
2023/05/18 13:59:07;;;;;;;4.20;2.43;;;19.70;25.60;;;;;;10313920;28;20307;-68
2023/05/18 14:04:10;;;;;;;3.90;2.43;;;19.70;26.30;;;;;;10323421;28;20321;-70
2023/05/18 14:09:14;;;;;;;4.87;3.23;;;19.80;26.00;;;;;;10331523;28;20226;-71
2023/05/18 14:14:18;;;;;;;4.60;2.37;;;19.80;25.90;;;;;;10360307;28;21117;-69
2023/05/18 14:19:21;;;;;;;3.80;2.20;;;19.70;25.80;;;;;;10364643;28;20248;-68
2023/05/18 14:24:25;;;;;;;5.97;2.30;;;19.70;26.20;;;;;;10365459;28;20248;-70
2023/05/18 14:29:29;;;;;;;3.47;2.40;;;19.70;26.40;;;;;;10353698;28;20641;-70
2023/05/18 14:39:13;;;;;;;5.13;2.10;;;19.90;26.50;;;;;;10579482;27;20556;-72
2023/05/18 14:44:16;;;;;;;3.47;2.30;;;19.90;26.30;;;;;;10575783;27;20225;-69
2023/05/18 14:49:19;;;;;;;3.47;2.10;;;19.90;26.50;;;;;;10607798;27;20322;-65
2023/05/18 14:54:24;;;;;;;3.17;2.03;;;19.90;26.50;;;;;;10605678;27;20326;-65
2023/05/18 14:59:27;;;;;;;4.30;2.50;;;19.90;26.10;;;;;;10612669;27;20230;-65
2023/05/18 15:04:30;;;;;;;4.30;3.20;;;19.90;26.30;;;;;;10607730;27;20315;-65
2023/05/18 15:09:35;;;;;;;3.10;2.20;;;19.80;26.30;;;;;;10608340;27;20230;-65
2023/05/18 15:14:38;;;;;;;3.53;2.33;;;19.80;26.00;;;;;;10610106;27;20225;-65
2023/05/18 15:19:41;;;;;;;4.27;2.50;;;19.80;26.30;;;;;;10607908;27;20215;-72
2023/05/18 15:24:46;;;;;;;4.70;2.50;;;19.80;26.30;;;;;;10606774;27;20214;-70
2023/05/18 15:29:49;;;;;;;5.30;2.43;;;19.70;26.20;;;;;;10599264;27;20720;-74
2023/05/18 15:34:52;;;;;;;3.83;2.67;;;19.70;26.30;;;;;;10600088;27;20686;-70
2023/05/18 15:39:57;;;;;;;3.93;2.37;;;19.70;26.30;;;;;;10600751;27;20582;-70
2023/05/18 15:45:01;;;;;;;3.07;2.50;;;19.80;26.10;;;;;;10602220;27;20784;-72
2023/05/18 15:50:06;;;;;;;3.43;2.43;;;19.80;26.30;;;;;;10576192;27;20219;-65
2023/05/18 15:55:11;;;;;;;3.60;2.93;;;19.80;26.20;;;;;;10573445;27;20219;-69
2023/05/18 16:00:15;;;;;;;5.07;2.50;;;19.80;25.80;;;;;;10538358;27;20215;-69
2023/05/18 16:05:18;;;;;;;3.57;2.37;;;19.70;26.10;;;;;;10534587;28;20602;-69
2023/05/18 16:10:23;;;;;;;3.70;2.37;;;19.70;26.00;;;;;;10528559;27;20223;-65
2023/05/18 16:15:26;;;;;;;2.87;2.40;;;19.70;25.80;;;;;;10533313;27;20239;-72
2023/05/18 16:20:29;;;;;;;3.87;2.40;;;19.60;26.00;;;;;;10532544;27;20270;-71
2023/05/18 16:25:34;;;;;;;3.53;2.30;;;19.60;26.10;;;;;;10534172;28;20316;-72
2023/05/18 16:30:37;;;;;;;5.90;2.77;;;19.50;26.00;;;;;;10533083;27;20216;-71
2023/05/18 16:35:40;;;;;;;6.00;5.10;;;19.50;26.20;;;;;;10530231;27;20717;-72
2023/05/18 16:40:45;;;;;;;3.97;2.97;;;19.50;26.20;;;;;;10533595;27;20808;-72
2023/05/18 16:45:48;;;;;;;6.30;2.87;;;19.40;26.00;;;;;;10535427;28;20219;-65
2023/05/18 16:50:51;;;;;;;4.30;2.60;;;19.40;26.20;;;;;;10530648;27;20224;-65
2023/05/18 16:55:56;;;;;;;6.10;2.60;;;19.40;26.30;;;;;;10532587;27;20224;-65
2023/05/18 17:00:59;;;;;;;3.73;2.33;;;19.50;26.30;;;;;;10533362;27;20300;-65
2023/05/18 17:06:03;;;;;;;4.70;2.43;;;19.40;26.40;;;;;;10533446;27;20230;-71
2023/05/18 17:11:07;;;;;;;5.63;2.80;;;19.40;26.40;;;;;;10529084;27;20219;-65
2023/05/18 17:16:12;;;;;;;3.70;2.80;;;19.40;26.30;;;;;;10527546;27;20889;-65
2023/05/18 17:21:16;;;;;;;4.07;2.30;;;19.40;26.40;;;;;;10528358;27;20229;-65
2023/05/18 17:26:21;;;;;;;3.43;2.10;;;19.30;26.30;;;;;;10531686;27;20311;-65
2023/05/18 17:31:24;;;;;;;4.10;2.40;;;19.30;26.30;;;;;;10527676;28;20307;-65
2023/05/18 17:36:27;;;;;;;4.10;2.80;;;19.30;26.50;;;;;;10532317;27;20235;-65
2023/05/18 17:41:33;;;;;;;5.07;4.57;;;19.30;26.50;;;;;;10527645;27;20231;-69
2023/05/18 17:46:36;;;;;;;6.53;5.93;;;19.30;26.40;;;;;;10532157;27;20227;-72
2023/05/18 17:51:39;;;;;;;6.40;4.47;;;19.20;26.50;;;;;;10535060;27;20288;-65
2023/05/18 17:56:44;;;;;;;4.80;3.27;;;19.10;26.50;;;;;;10532510;27;20325;-69
2023/05/18 18:01:47;;;;;;;3.20;2.47;;;19.10;26.70;;;;;;10532408;27;20233;-69
2023/05/18 18:06:53;;;;;;;3.63;2.13;;;19.00;26.80;;;;;;10533274;28;20231;-69
2023/05/18 18:11:59;;;;;;;4.27;2.40;;;18.90;26.90;;;;;;10530064;27;20222;-65
2023/05/18 18:17:02;;;;;;;4.50;2.80;;;18.90;27.20;;;;;;10531744;27;20258;-68
2023/05/18 18:22:05;;;;;;;3.23;2.23;;;18.80;27.20;;;;;;10528384;27;20709;-65
2023/05/18 18:27:10;;;;;;;3.03;2.50;;;18.80;27.20;;;;;;10526617;27;20232;-65
2023/05/18 18:32:13;;;;;;;4.20;2.27;;;18.70;27.30;;;;;;10527210;28;20219;-65
2023/05/18 18:37:17;;;;;;;6.37;2.90;;;18.60;27.30;;;;;;10527393;27;20234;-69
2023/05/18 18:42:21;;;;;;;5.67;2.60;;;18.60;27.50;;;;;;10522068;28;20227;-69
2023/05/18 18:47:24;;;;;;;3.47;2.50;;;18.50;27.60;;;;;;10528844;27;20227;-68
2023/05/18 18:52:28;;;;;;;3.20;2.43;;;18.50;27.70;;;;;;10533682;27;20231;-68
2023/05/18 18:57:33;;;;;;;3.07;2.33;;;18.40;27.70;;;;;;10523727;27;20239;-69
2023/05/18 19:02:36;;;;;;;5.17;2.67;;;18.40;27.90;;;;;;10519871;28;20515;-70
2023/05/18 19:07:39;;;;;;;3.80;2.80;;;18.40;27.90;;;;;;10526750;28;20239;-74
2023/05/18 19:12:44;;;;;;;4.00;2.33;;;18.30;27.90;;;;;;10527382;27;20673;-69
2023/05/18 19:17:50;;;;;;;4.83;2.40;;;18.30;28.10;;;;;;10527243;27;20247;-70
2023/05/18 19:22:54;;;;;;;5.33;2.53;;;18.20;27.90;;;;;;10528917;27;20242;-69
2023/05/18 19:27:59;;;;;;;3.43;2.53;;;18.10;28.00;;;;;;10535749;27;20219;-68
2023/05/18 19:33:03;;;;;;;3.20;2.50;;;17.90;28.00;;;;;;10532770;27;20640;-67
2023/05/18 19:38:06;;;;;;;3.90;2.70;;;17.80;28.00;;;;;;10543806;27;20225;-68
2023/05/18 19:43:11;;;;;;;3.17;2.23;;;17.70;28.10;;;;;;10541827;27;20715;-68
2023/05/18 19:48:14;;;;;;;4.70;2.40;;;17.60;28.20;;;;;;10539518;27;20308;-68
2023/05/18 19:53:17;;;;;;;2.30;2.00;;;17.50;28.20;;;;;;10537498;27;20219;-67
2023/05/18 19:58:22;;;;;;;2.23;2.03;;;17.40;28.20;;;;;;10536803;27;20246;-68
2023/05/18 20:03:26;;;;;;;2.27;1.80;;;17.30;28.40;;;;;;10530758;22;20225;-70
2023/05/18 20:08:29;;;;;;;2.80;2.10;;;17.20;28.40;;;;;;10410003;28;20233;-71
2023/05/18 20:13:34;;;;;;;2.43;2.00;;;17.20;28.40;;;;;;10391085;28;20762;-69
2023/05/18 20:18:38;;;;;;;1.93;1.83;;;17.10;28.50;;;;;;10410448;28;20320;-70
2023/05/18 20:23:42;;;;;;;3.70;2.00;;;17.10;28.40;;;;;;10402280;28;20230;-70
2023/05/18 20:28:46;;;;;;;1.67;1.57;;;17.10;28.50;;;;;;10407607;28;20320;-70
2023/05/18 20:33:52;;;;;;;2.27;2.00;;;17.10;28.70;;;;;;10437883;28;20240;-70
2023/05/18 20:38:55;;;;;;;1.97;1.83;;;17.00;28.60;;;;;;10446261;28;20229;-70
2023/05/18 20:44:01;;;;;;;2.20;2.00;;;16.90;28.60;;;;;;10399818;28;20223;-71
2023/05/18 20:49:04;;;;;;;3.20;1.97;;;16.90;28.70;;;;;;10406749;28;20309;-71
2023/05/18 20:54:07;;;;;;;2.30;1.80;;;16.80;28.70;;;;;;10407738;28;20259;-71
2023/05/18 20:59:12;;;;;;;2.43;1.97;;;16.80;28.70;;;;;;10406722;28;20236;-70
2023/05/18 21:04:15;;;;;;;4.37;1.90;;;16.70;28.70;;;;;;10395299;28;20225;-70
2023/05/18 21:09:21;;;;;;;2.53;2.10;;;16.70;28.70;;;;;;10401237;28;20225;-71
2023/05/18 21:14:26;;;;;;;2.53;2.33;;;16.60;28.70;;;;;;10400760;28;20224;-71
2023/05/18 21:19:29;;;;;;;3.43;2.10;;;16.60;29.00;;;;;;10402312;28;20240;-71
2023/05/18 21:24:32;;;;;;;2.63;2.37;;;16.60;29.00;;;;;;10410987;28;20237;-71
2023/05/18 21:29:37;;;;;;;2.63;2.37;;;16.50;28.90;;;;;;10403484;28;20691;-71
2023/05/18 21:34:40;;;;;;;2.40;2.20;;;16.50;29.00;;;;;;10408520;28;20736;-71
2023/05/18 21:39:45;;;;;;;3.53;2.03;;;16.50;29.00;;;;;;10404337;28;20231;-71
2023/05/18 21:44:50;;;;;;;3.57;2.20;;;16.40;29.00;;;;;;10408290;28;20230;-71
2023/05/18 21:49:53;;;;;;;4.77;2.10;;;16.40;29.20;;;;;;10405818;28;20221;-70
2023/05/18 21:54:56;;;;;;;2.80;2.40;;;16.40;29.10;;;;;;10403555;28;20233;-71
2023/05/18 22:00:01;;;;;;;3.10;2.50;;;16.30;29.00;;;;;;10403331;28;20707;-71
2023/05/18 22:05:05;;;;;;;3.47;1.97;;;16.30;29.20;;;;;;10401989;28;20591;-71
2023/05/18 22:10:09;;;;;;;4.03;2.47;;;16.20;29.10;;;;;;10403669;28;20281;-71
2023/05/18 22:15:15;;;;;;;3.03;2.10;;;16.20;29.20;;;;;;10401826;28;20225;-71
2023/05/18 22:20:20;;;;;;;3.73;2.20;;;16.20;29.30;;;;;;10398569;28;20236;-71
2023/05/18 22:25:23;;;;;;;4.87;2.70;;;16.20;29.20;;;;;;10398622;28;20276;-71
2023/05/18 22:30:28;;;;;;;4.10;2.73;;;16.10;29.20;;;;;;10397577;28;20238;-71
2023/05/18 22:35:32;;;;;;;3.90;2.60;;;16.10;29.30;;;;;;10401166;28;20233;-71
2023/05/18 22:40:35;;;;;;;4.30;2.67;;;16.10;29.20;;;;;;10399711;28;20233;-71
2023/05/18 22:45:40;;;;;;;2.93;2.33;;;16.10;29.20;;;;;;10405144;28;20284;-71
2023/05/18 22:50:43;;;;;;;2.60;2.40;;;16.00;29.40;;;;;;10407798;28;20219;-71
2023/05/18 22:55:46;;;;;;;7.00;2.50;;;16.00;29.20;;;;;;10399165;28;20236;-71
2023/05/18 23:00:51;;;;;;;3.67;2.70;;;16.00;29.30;;;;;;10409399;28;20615;-71
2023/05/18 23:05:55;;;;;;;2.53;2.30;;;16.00;29.40;;;;;;10413409;28;20697;-71
2023/05/18 23:11:00;;;;;;;5.33;2.60;;;15.90;29.30;;;;;;10411708;28;20675;-71
2023/05/18 23:16:09;;;;;;;3.20;2.17;;;15.80;29.30;;;;;;10413459;28;20624;-71
2023/05/18 23:21:13;;;;;;;3.23;2.23;;;15.80;29.60;;;;;;10415479;28;20280;-71
2023/05/18 23:26:16;;;;;;;4.33;2.53;;;15.80;29.60;;;;;;10409522;28;20225;-71
2023/05/18 23:31:21;;;;;;;4.07;2.40;;;15.80;29.60;;;;;;10406302;28;20804;-71
2023/05/18 23:36:29;;;;;;;3.43;2.60;;;15.70;29.70;;;;;;10409058;28;20782;-71
2023/05/18 23:41:33;;;;;;;4.07;2.50;;;15.80;30.00;;;;;;10407295;28;20233;-71
2023/05/18 23:46:39;;;;;;;2.77;2.27;;;15.70;29.70;;;;;;10407003;28;20804;-71
2023/05/18 23:51:43;;;;;;;2.90;2.60;;;15.70;30.60;;;;;;10406645;28;20221;-71
2023/05/18 23:56:49;;;;;;;3.10;2.30;;;15.70;30.00;;;;;;10407017;28;20217;-71
